Decoded Metar for KRCX (LADYSMITH/RUSK in WI, USA) (IATA:RCX) | Meteo·Mobile Aviation Weather
aviador You're here:

KRCX Decoded Metar

LADYSMITH/RUSK in WI, USA
Report Time2019-07-23 06:55:00
UTC Time2019-07-23 06:49:21
Flight Rules vfr VFR
Wind320° at 03 kt
W.Decomp.*RWY 32: 3.0 kt HW 0 kt LCW
RWY 01: 1.9 kt HW 2.3 kt LCW
Visibility9999 m
Phenomena:N/A
Clouds:N/A
Expected CloudBase > 400 ft AGL from Temp-Dew spread
CeilingNone
Temp15°C (ISA +2)
Dew Point14°C (94% RH)
QNH1022 hPa
Density Alt1,444 ft
Elevation1,237 ft
Report Wrong Elevation
Raw Report
METAR KRCX 230655Z AUTO 32003KT 10SM CLR 15/14 A3018 RMK AO2 T01530140=

Extra information for KRCX:More info

Metar Taf Metar & Taf Last 4 Metars F.Rules Stats Wind Profile Meteogram Temp Stats Airport Information Weather charts Add Link Nearby VenuesMetar ALERT Operation Metar Decoded Social comments

AIRNAV info for KRCX